sensor_id;sensor_type;location;lat;lon;timestamp;temperature;humidity
51595;DHT22;37677;53.254;6.594;2023-05-07T00:01:46;12.00;75.80
51595;DHT22;37677;53.254;6.594;2023-05-07T00:04:12;12.10;78.30
51595;DHT22;37677;53.254;6.594;2023-05-07T00:06:38;11.90;75.10
51595;DHT22;37677;53.254;6.594;2023-05-07T00:09:05;11.80;74.60
51595;DHT22;37677;53.254;6.594;2023-05-07T00:11:31;12.20;75.60
51595;DHT22;37677;53.254;6.594;2023-05-07T00:13:57;12.00;82.70
51595;DHT22;37677;53.254;6.594;2023-05-07T00:16:22;11.90;75.90
51595;DHT22;37677;53.254;6.594;2023-05-07T00:18:48;12.00;77.00
51595;DHT22;37677;53.254;6.594;2023-05-07T00:21:14;11.80;78.50
51595;DHT22;37677;53.254;6.594;2023-05-07T00:23:39;11.90;79.20
51595;DHT22;37677;53.254;6.594;2023-05-07T00:26:05;11.80;83.10
51595;DHT22;37677;53.254;6.594;2023-05-07T00:28:31;11.80;84.10
51595;DHT22;37677;53.254;6.594;2023-05-07T00:30:56;12.20;85.10
51595;DHT22;37677;53.254;6.594;2023-05-07T00:33:22;11.40;84.60
51595;DHT22;37677;53.254;6.594;2023-05-07T00:35:48;12.30;83.40
51595;DHT22;37677;53.254;6.594;2023-05-07T00:38:14;11.60;85.80
51595;DHT22;37677;53.254;6.594;2023-05-07T00:40:40;11.70;85.90
51595;DHT22;37677;53.254;6.594;2023-05-07T00:43:06;10.80;86.70
51595;DHT22;37677;53.254;6.594;2023-05-07T00:45:32;11.60;85.80
51595;DHT22;37677;53.254;6.594;2023-05-07T00:48:00;11.90;88.60
51595;DHT22;37677;53.254;6.594;2023-05-07T00:50:26;11.50;90.70
51595;DHT22;37677;53.254;6.594;2023-05-07T00:52:53;11.50;89.60
51595;DHT22;37677;53.254;6.594;2023-05-07T00:55:19;11.30;88.90
51595;DHT22;37677;53.254;6.594;2023-05-07T00:57:45;11.80;88.70
51595;DHT22;37677;53.254;6.594;2023-05-07T01:00:11;12.30;91.30
51595;DHT22;37677;53.254;6.594;2023-05-07T01:02:41;11.60;91.30
51595;DHT22;37677;53.254;6.594;2023-05-07T01:05:10;11.60;92.10
51595;DHT22;37677;53.254;6.594;2023-05-07T01:10:06;11.40;82.30
51595;DHT22;37677;53.254;6.594;2023-05-07T01:12:34;11.40;85.90
51595;DHT22;37677;53.254;6.594;2023-05-07T01:15:01;11.50;87.30
51595;DHT22;37677;53.254;6.594;2023-05-07T01:17:27;11.40;88.40
51595;DHT22;37677;53.254;6.594;2023-05-07T01:19:53;11.90;92.60
51595;DHT22;37677;53.254;6.594;2023-05-07T01:22:33;11.40;91.70
51595;DHT22;37677;53.254;6.594;2023-05-07T01:24:59;11.00;93.00
51595;DHT22;37677;53.254;6.594;2023-05-07T01:27:27;11.60;98.20
51595;DHT22;37677;53.254;6.594;2023-05-07T01:29:53;11.40;97.10
51595;DHT22;37677;53.254;6.594;2023-05-07T01:32:29;11.40;96.80
51595;DHT22;37677;53.254;6.594;2023-05-07T01:34:55;11.50;97.60
51595;DHT22;37677;53.254;6.594;2023-05-07T01:37:23;11.70;97.40
51595;DHT22;37677;53.254;6.594;2023-05-07T01:39:50;11.70;97.00
51595;DHT22;37677;53.254;6.594;2023-05-07T01:44:43;11.40;99.90
51595;DHT22;37677;53.254;6.594;2023-05-07T01:47:11;11.40;99.90
51595;DHT22;37677;53.254;6.594;2023-05-07T01:49:37;11.50;99.90
51595;DHT22;37677;53.254;6.594;2023-05-07T01:52:04;11.60;99.90
51595;DHT22;37677;53.254;6.594;2023-05-07T01:54:30;11.40;99.90
51595;DHT22;37677;53.254;6.594;2023-05-07T01:56:56;11.60;99.90
51595;DHT22;37677;53.254;6.594;2023-05-07T02:01:48;11.50;99.90
51595;DHT22;37677;53.254;6.594;2023-05-07T02:09:06;11.30;94.50
51595;DHT22;37677;53.254;6.594;2023-05-07T02:11:34;11.50;95.30
51595;DHT22;37677;53.254;6.594;2023-05-07T02:14:01;11.40;96.60
51595;DHT22;37677;53.254;6.594;2023-05-07T02:16:26;11.30;97.10
51595;DHT22;37677;53.254;6.594;2023-05-07T02:18:52;11.80;97.30
51595;DHT22;37677;53.254;6.594;2023-05-07T02:21:18;11.20;98.40
51595;DHT22;37677;53.254;6.594;2023-05-07T02:23:44;11.30;99.90
51595;DHT22;37677;53.254;6.594;2023-05-07T02:26:10;11.20;98.50
51595;DHT22;37677;53.254;6.594;2023-05-07T02:28:36;11.30;99.90
51595;DHT22;37677;53.254;6.594;2023-05-07T02:31:03;11.30;98.60
51595;DHT22;37677;53.254;6.594;2023-05-07T02:33:28;11.30;99.10
51595;DHT22;37677;53.254;6.594;2023-05-07T02:35:54;11.20;99.20
51595;DHT22;37677;53.254;6.594;2023-05-07T02:38:22;11.20;99.90
51595;DHT22;37677;53.254;6.594;2023-05-07T02:40:47;11.30;99.90
51595;DHT22;37677;53.254;6.594;2023-05-07T02:43:13;11.20;99.90
51595;DHT22;37677;53.254;6.594;2023-05-07T02:45:39;11.50;99.90
51595;DHT22;37677;53.254;6.594;2023-05-07T02:48:05;11.40;99.90
51595;DHT22;37677;53.254;6.594;2023-05-07T02:50:33;11.30;99.70
51595;DHT22;37677;53.254;6.594;2023-05-07T02:52:59;11.00;99.90
51595;DHT22;37677;53.254;6.594;2023-05-07T02:55:24;11.20;99.90
51595;DHT22;37677;53.254;6.594;2023-05-07T02:57:50;11.10;99.60
51595;DHT22;37677;53.254;6.594;2023-05-07T03:00:18;11.60;99.90
51595;DHT22;37677;53.254;6.594;2023-05-07T03:02:44;11.10;99.90
51595;DHT22;37677;53.254;6.594;2023-05-07T03:05:10;11.20;99.90
51595;DHT22;37677;53.254;6.594;2023-05-07T03:07:37;11.50;99.90
51595;DHT22;37677;53.254;6.594;2023-05-07T03:10:03;11.00;99.90
51595;DHT22;37677;53.254;6.594;2023-05-07T03:12:30;11.10;99.90
51595;DHT22;37677;53.254;6.594;2023-05-07T03:14:56;11.20;99.90
51595;DHT22;37677;53.254;6.594;2023-05-07T03:17:22;11.10;99.90
51595;DHT22;37677;53.254;6.594;2023-05-07T03:19:47;11.20;99.90
51595;DHT22;37677;53.254;6.594;2023-05-07T03:24:39;11.10;97.40
51595;DHT22;37677;53.254;6.594;2023-05-07T03:29:31;11.00;99.60
51595;DHT22;37677;53.254;6.594;2023-05-07T03:31:56;11.30;99.90
51595;DHT22;37677;53.254;6.594;2023-05-07T03:34:22;11.20;99.90
51595;DHT22;37677;53.254;6.594;2023-05-07T03:36:48;11.10;99.90
51595;DHT22;37677;53.254;6.594;2023-05-07T03:44:07;10.90;99.90
51595;DHT22;37677;53.254;6.594;2023-05-07T03:51:25;10.90;96.10
51595;DHT22;37677;53.254;6.594;2023-05-07T03:53:51;10.80;97.50
51595;DHT22;37677;53.254;6.594;2023-05-07T03:56:23;10.80;97.80
51595;DHT22;37677;53.254;6.594;2023-05-07T03:58:52;10.30;98.10
51595;DHT22;37677;53.254;6.594;2023-05-07T04:01:17;10.90;98.20
51595;DHT22;37677;53.254;6.594;2023-05-07T04:03:43;10.80;98.40
51595;DHT22;37677;53.254;6.594;2023-05-07T04:06:08;11.00;97.40
51595;DHT22;37677;53.254;6.594;2023-05-07T04:08:34;11.00;98.30
51595;DHT22;37677;53.254;6.594;2023-05-07T04:11:00;10.70;99.90
51595;DHT22;37677;53.254;6.594;2023-05-07T04:13:26;10.80;99.60
51595;DHT22;37677;53.254;6.594;2023-05-07T04:15:53;10.70;99.90
51595;DHT22;37677;53.254;6.594;2023-05-07T04:18:19;11.20;99.90
51595;DHT22;37677;53.254;6.594;2023-05-07T04:20:45;10.90;99.90
51595;DHT22;37677;53.254;6.594;2023-05-07T04:23:11;10.70;99.90
51595;DHT22;37677;53.254;6.594;2023-05-07T04:25:36;10.90;99.70
51595;DHT22;37677;53.254;6.594;2023-05-07T04:28:02;10.70;99.50
51595;DHT22;37677;53.254;6.594;2023-05-07T04:32:54;10.80;97.40
51595;DHT22;37677;53.254;6.594;2023-05-07T04:35:19;10.30;98.80
51595;DHT22;37677;53.254;6.594;2023-05-07T04:37:45;10.70;99.90
51595;DHT22;37677;53.254;6.594;2023-05-07T04:40:11;10.80;99.90
51595;DHT22;37677;53.254;6.594;2023-05-07T04:45:03;10.70;97.50
51595;DHT22;37677;53.254;6.594;2023-05-07T04:47:30;10.70;98.30
51595;DHT22;37677;53.254;6.594;2023-05-07T04:49:57;11.00;99.30
51595;DHT22;37677;53.254;6.594;2023-05-07T04:52:22;10.80;98.90
51595;DHT22;37677;53.254;6.594;2023-05-07T04:54:48;10.70;98.80
51595;DHT22;37677;53.254;6.594;2023-05-07T04:57:13;10.80;99.90
51595;DHT22;37677;53.254;6.594;2023-05-07T04:59:39;10.70;99.50
51595;DHT22;37677;53.254;6.594;2023-05-07T05:02:05;10.80;99.90
51595;DHT22;37677;53.254;6.594;2023-05-07T05:06:57;10.50;96.60
51595;DHT22;37677;53.254;6.594;2023-05-07T05:09:23;10.50;99.60
51595;DHT22;37677;53.254;6.594;2023-05-07T05:11:49;10.90;98.40
51595;DHT22;37677;53.254;6.594;2023-05-07T05:14:15;10.80;99.00
51595;DHT22;37677;53.254;6.594;2023-05-07T05:16:40;10.60;95.90
51595;DHT22;37677;53.254;6.594;2023-05-07T05:19:06;10.80;97.10
51595;DHT22;37677;53.254;6.594;2023-05-07T05:21:32;10.80;99.90
51595;DHT22;37677;53.254;6.594;2023-05-07T05:23:58;10.70;96.80
51595;DHT22;37677;53.254;6.594;2023-05-07T05:26:24;10.70;97.70
51595;DHT22;37677;53.254;6.594;2023-05-07T05:28:50;10.60;96.40
51595;DHT22;37677;53.254;6.594;2023-05-07T05:31:18;10.70;96.30
51595;DHT22;37677;53.254;6.594;2023-05-07T05:33:44;11.10;96.70
51595;DHT22;37677;53.254;6.594;2023-05-07T05:36:10;11.00;97.50
51595;DHT22;37677;53.254;6.594;2023-05-07T05:38:37;11.10;96.50
51595;DHT22;37677;53.254;6.594;2023-05-07T05:41:03;10.80;98.40
51595;DHT22;37677;53.254;6.594;2023-05-07T05:43:28;10.80;96.60
51595;DHT22;37677;53.254;6.594;2023-05-07T05:45:55;10.80;97.00
51595;DHT22;37677;53.254;6.594;2023-05-07T05:48:21;10.80;95.90
51595;DHT22;37677;53.254;6.594;2023-05-07T05:50:47;10.80;94.70
51595;DHT22;37677;53.254;6.594;2023-05-07T05:53:12;10.70;93.60
51595;DHT22;37677;53.254;6.594;2023-05-07T05:55:38;10.80;94.20
51595;DHT22;37677;53.254;6.594;2023-05-07T05:58:04;10.70;93.40
51595;DHT22;37677;53.254;6.594;2023-05-07T06:00:30;10.70;92.30
51595;DHT22;37677;53.254;6.594;2023-05-07T06:02:55;10.70;91.80
51595;DHT22;37677;53.254;6.594;2023-05-07T06:05:21;10.90;92.50
51595;DHT22;37677;53.254;6.594;2023-05-07T06:07:47;10.70;91.70
51595;DHT22;37677;53.254;6.594;2023-05-07T06:10:12;10.80;95.70
51595;DHT22;37677;53.254;6.594;2023-05-07T06:12:39;11.30;90.10
51595;DHT22;37677;53.254;6.594;2023-05-07T06:17:31;10.70;87.00
51595;DHT22;37677;53.254;6.594;2023-05-07T06:19:56;11.10;90.90
51595;DHT22;37677;53.254;6.594;2023-05-07T06:29:40;10.90;84.10
51595;DHT22;37677;53.254;6.594;2023-05-07T06:32:10;11.10;91.20
51595;DHT22;37677;53.254;6.594;2023-05-07T06:34:37;11.10;87.40
51595;DHT22;37677;53.254;6.594;2023-05-07T06:39:29;10.90;84.90
51595;DHT22;37677;53.254;6.594;2023-05-07T06:44:21;10.90;76.70
51595;DHT22;37677;53.254;6.594;2023-05-07T06:51:39;11.10;79.10
51595;DHT22;37677;53.254;6.594;2023-05-07T06:54:05;11.10;85.30
51595;DHT22;37677;53.254;6.594;2023-05-07T06:56:31;11.10;82.40
51595;DHT22;37677;53.254;6.594;2023-05-07T06:58:57;11.40;80.20
51595;DHT22;37677;53.254;6.594;2023-05-07T07:01:23;11.20;78.60
51595;DHT22;37677;53.254;6.594;2023-05-07T07:03:48;11.10;77.20
51595;DHT22;37677;53.254;6.594;2023-05-07T07:06:14;11.40;75.00
51595;DHT22;37677;53.254;6.594;2023-05-07T07:08:40;11.20;75.50
51595;DHT22;37677;53.254;6.594;2023-05-07T07:11:06;11.30;79.70
51595;DHT22;37677;53.254;6.594;2023-05-07T07:18:24;11.20;64.00
51595;DHT22;37677;53.254;6.594;2023-05-07T07:23:19;11.20;85.70
51595;DHT22;37677;53.254;6.594;2023-05-07T07:33:03;11.10;60.30
51595;DHT22;37677;53.254;6.594;2023-05-07T07:35:29;11.60;62.70
51595;DHT22;37677;53.254;6.594;2023-05-07T07:37:55;11.10;62.60
51595;DHT22;37677;53.254;6.594;2023-05-07T07:42:47;11.10;60.60
51595;DHT22;37677;53.254;6.594;2023-05-07T07:45:13;11.20;61.90
51595;DHT22;37677;53.254;6.594;2023-05-07T07:47:39;11.90;63.20
51595;DHT22;37677;53.254;6.594;2023-05-07T07:50:06;11.30;67.40
51595;DHT22;37677;53.254;6.594;2023-05-07T07:54:58;11.20;58.00
51595;DHT22;37677;53.254;6.594;2023-05-07T07:57:24;11.40;60.20
51595;DHT22;37677;53.254;6.594;2023-05-07T07:59:50;11.50;58.50
51595;DHT22;37677;53.254;6.594;2023-05-07T08:02:16;11.50;65.10
51595;DHT22;37677;53.254;6.594;2023-05-07T08:04:42;11.60;62.60
51595;DHT22;37677;53.254;6.594;2023-05-07T08:07:09;11.40;62.80
51595;DHT22;37677;53.254;6.594;2023-05-07T08:09:36;11.40;61.80
51595;DHT22;37677;53.254;6.594;2023-05-07T08:12:02;11.40;64.30
51595;DHT22;37677;53.254;6.594;2023-05-07T08:14:29;11.50;65.20
51595;DHT22;37677;53.254;6.594;2023-05-07T08:16:55;12.00;69.10
51595;DHT22;37677;53.254;6.594;2023-05-07T08:19:20;11.80;63.50
51595;DHT22;37677;53.254;6.594;2023-05-07T08:21:47;11.70;65.40
51595;DHT22;37677;53.254;6.594;2023-05-07T08:24:16;11.60;65.40
51595;DHT22;37677;53.254;6.594;2023-05-07T08:26:42;12.40;66.70
51595;DHT22;37677;53.254;6.594;2023-05-07T08:29:08;11.70;61.80
51595;DHT22;37677;53.254;6.594;2023-05-07T08:31:34;11.80;59.60
51595;DHT22;37677;53.254;6.594;2023-05-07T08:34:00;11.70;58.30
51595;DHT22;37677;53.254;6.594;2023-05-07T08:36:26;11.90;56.90
51595;DHT22;37677;53.254;6.594;2023-05-07T08:38:52;11.80;59.10
51595;DHT22;37677;53.254;6.594;2023-05-07T08:41:18;11.40;49.40
51595;DHT22;37677;53.254;6.594;2023-05-07T08:43:48;12.10;48.80
51595;DHT22;37677;53.254;6.594;2023-05-07T08:46:22;12.20;51.00
51595;DHT22;37677;53.254;6.594;2023-05-07T08:48:51;12.60;48.30
51595;DHT22;37677;53.254;6.594;2023-05-07T08:51:20;12.70;51.90
51595;DHT22;37677;53.254;6.594;2023-05-07T08:53:47;12.30;60.50
51595;DHT22;37677;53.254;6.594;2023-05-07T08:56:17;12.50;59.60
51595;DHT22;37677;53.254;6.594;2023-05-07T08:58:43;12.80;45.80
51595;DHT22;37677;53.254;6.594;2023-05-07T09:01:15;12.70;51.00
51595;DHT22;37677;53.254;6.594;2023-05-07T09:03:46;12.90;48.40
51595;DHT22;37677;53.254;6.594;2023-05-07T09:06:12;12.70;46.10
51595;DHT22;37677;53.254;6.594;2023-05-07T09:08:37;13.00;45.10
51595;DHT22;37677;53.254;6.594;2023-05-07T09:13:31;13.10;44.40
51595;DHT22;37677;53.254;6.594;2023-05-07T09:15:59;13.10;41.10
51595;DHT22;37677;53.254;6.594;2023-05-07T09:18:27;13.10;14.90
51595;DHT22;37677;53.254;6.594;2023-05-07T09:20:52;13.10;11.90
51595;DHT22;37677;53.254;6.594;2023-05-07T09:23:18;13.10;15.20
51595;DHT22;37677;53.254;6.594;2023-05-07T09:25:44;13.00;16.10
51595;DHT22;37677;53.254;6.594;2023-05-07T09:28:10;12.90;12.10
51595;DHT22;37677;53.254;6.594;2023-05-07T09:30:36;13.00;12.60
51595;DHT22;37677;53.254;6.594;2023-05-07T09:33:03;13.20;14.40
51595;DHT22;37677;53.254;6.594;2023-05-07T09:35:30;13.20;7.00
51595;DHT22;37677;53.254;6.594;2023-05-07T09:37:57;13.40;8.60
51595;DHT22;37677;53.254;6.594;2023-05-07T09:40:28;13.30;4.20
51595;DHT22;37677;53.254;6.594;2023-05-07T09:45:27;13.70;4.20
51595;DHT22;37677;53.254;6.594;2023-05-07T09:47:55;13.90;1.00
51595;DHT22;37677;53.254;6.594;2023-05-07T09:50:29;13.90;1.00
51595;DHT22;37677;53.254;6.594;2023-05-07T09:52:56;14.00;1.00
51595;DHT22;37677;53.254;6.594;2023-05-07T09:55:22;14.20;1.00
51595;DHT22;37677;53.254;6.594;2023-05-07T09:57:51;14.00;1.00
51595;DHT22;37677;53.254;6.594;2023-05-07T10:00:19;14.10;1.00
51595;DHT22;37677;53.254;6.594;2023-05-07T10:02:51;14.10;1.00
51595;DHT22;37677;53.254;6.594;2023-05-07T10:05:21;14.30;1.00
51595;DHT22;37677;53.254;6.594;2023-05-07T10:07:48;14.40;1.00
51595;DHT22;37677;53.254;6.594;2023-05-07T10:10:15;14.40;1.00
51595;DHT22;37677;53.254;6.594;2023-05-07T10:12:41;14.50;1.00
51595;DHT22;37677;53.254;6.594;2023-05-07T10:15:11;14.60;1.00
51595;DHT22;37677;53.254;6.594;2023-05-07T10:17:40;14.80;1.00
51595;DHT22;37677;53.254;6.594;2023-05-07T10:20:07;14.90;1.00
51595;DHT22;37677;53.254;6.594;2023-05-07T10:22:47;15.00;1.00
51595;DHT22;37677;53.254;6.594;2023-05-07T10:25:21;15.00;1.00
51595;DHT22;37677;53.254;6.594;2023-05-07T10:27:49;15.00;1.00
51595;DHT22;37677;53.254;6.594;2023-05-07T10:30:57;14.80;1.00
51595;DHT22;37677;53.254;6.594;2023-05-07T10:33:27;14.70;1.00
51595;DHT22;37677;53.254;6.594;2023-05-07T10:35:58;14.70;1.00
51595;DHT22;37677;53.254;6.594;2023-05-07T10:38:27;14.70;1.00
51595;DHT22;37677;53.254;6.594;2023-05-07T10:40:53;15.00;1.00
51595;DHT22;37677;53.254;6.594;2023-05-07T10:43:19;15.00;1.00
51595;DHT22;37677;53.254;6.594;2023-05-07T10:46:11;14.90;1.00
51595;DHT22;37677;53.254;6.594;2023-05-07T10:51:29;14.90;1.00
51595;DHT22;37677;53.254;6.594;2023-05-07T10:56:42;15.10;1.00
51595;DHT22;37677;53.254;6.594;2023-05-07T11:04:16;15.10;1.00
51595;DHT22;37677;53.254;6.594;2023-05-07T11:09:57;15.50;1.00
51595;DHT22;37677;53.254;6.594;2023-05-07T11:15:15;15.70;1.00
51595;DHT22;37677;53.254;6.594;2023-05-07T11:17:59;16.90;1.00
51595;DHT22;37677;53.254;6.594;2023-05-07T11:20:57;16.10;1.00
51595;DHT22;37677;53.254;6.594;2023-05-07T11:26:08;16.20;1.00
51595;DHT22;37677;53.254;6.594;2023-05-07T11:28:42;16.50;1.00
51595;DHT22;37677;53.254;6.594;2023-05-07T11:31:09;16.60;1.00
51595;DHT22;37677;53.254;6.594;2023-05-07T11:33:35;16.80;1.00
51595;DHT22;37677;53.254;6.594;2023-05-07T11:36:05;16.90;1.00
51595;DHT22;37677;53.254;6.594;2023-05-07T11:38:36;17.00;1.00
51595;DHT22;37677;53.254;6.594;2023-05-07T11:41:06;16.90;1.00
51595;DHT22;37677;53.254;6.594;2023-05-07T11:43:33;17.00;1.00
51595;DHT22;37677;53.254;6.594;2023-05-07T11:46:09;16.80;1.00
51595;DHT22;37677;53.254;6.594;2023-05-07T11:48:35;18.40;1.00
51595;DHT22;37677;53.254;6.594;2023-05-07T11:51:04;17.00;1.00
51595;DHT22;37677;53.254;6.594;2023-05-07T11:53:43;16.90;99.90
51595;DHT22;37677;53.254;6.594;2023-05-07T11:56:13;16.70;99.90
51595;DHT22;37677;53.254;6.594;2023-05-07T11:58:40;17.00;99.90
51595;DHT22;37677;53.254;6.594;2023-05-07T12:01:11;17.10;1.00
51595;DHT22;37677;53.254;6.594;2023-05-07T12:03:39;17.10;99.90
51595;DHT22;37677;53.254;6.594;2023-05-07T12:06:08;17.10;99.90
51595;DHT22;37677;53.254;6.594;2023-05-07T12:08:37;17.30;99.90
51595;DHT22;37677;53.254;6.594;2023-05-07T12:11:03;17.20;99.90
51595;DHT22;37677;53.254;6.594;2023-05-07T12:13:32;17.50;1.00
51595;DHT22;37677;53.254;6.594;2023-05-07T12:15:58;17.50;99.90
51595;DHT22;37677;53.254;6.594;2023-05-07T12:18:24;17.30;99.90
51595;DHT22;37677;53.254;6.594;2023-05-07T12:20:50;17.60;99.90
51595;DHT22;37677;53.254;6.594;2023-05-07T12:23:16;17.60;99.90
51595;DHT22;37677;53.254;6.594;2023-05-07T12:25:43;17.90;99.90
51595;DHT22;37677;53.254;6.594;2023-05-07T12:28:16;17.90;99.90
51595;DHT22;37677;53.254;6.594;2023-05-07T12:30:43;17.70;99.90
51595;DHT22;37677;53.254;6.594;2023-05-07T12:33:10;17.30;99.90
51595;DHT22;37677;53.254;6.594;2023-05-07T12:35:43;17.30;99.90
51595;DHT22;37677;53.254;6.594;2023-05-07T12:38:10;17.30;99.90
51595;DHT22;37677;53.254;6.594;2023-05-07T12:40:38;17.30;99.90
51595;DHT22;37677;53.254;6.594;2023-05-07T12:43:04;17.30;99.90
51595;DHT22;37677;53.254;6.594;2023-05-07T12:45:30;17.30;99.90
51595;DHT22;37677;53.254;6.594;2023-05-07T12:47:56;17.20;99.90
51595;DHT22;37677;53.254;6.594;2023-05-07T12:50:22;17.30;99.90
51595;DHT22;37677;53.254;6.594;2023-05-07T12:52:48;17.40;99.90
51595;DHT22;37677;53.254;6.594;2023-05-07T12:55:15;17.30;99.90
51595;DHT22;37677;53.254;6.594;2023-05-07T12:57:43;17.30;1.00
51595;DHT22;37677;53.254;6.594;2023-05-07T13:00:09;17.20;1.00
51595;DHT22;37677;53.254;6.594;2023-05-07T13:02:39;17.80;1.00
51595;DHT22;37677;53.254;6.594;2023-05-07T13:05:05;17.30;1.00
51595;DHT22;37677;53.254;6.594;2023-05-07T13:07:30;17.30;1.00
51595;DHT22;37677;53.254;6.594;2023-05-07T13:09:56;17.20;1.00
51595;DHT22;37677;53.254;6.594;2023-05-07T13:12:22;17.00;1.00
51595;DHT22;37677;53.254;6.594;2023-05-07T13:14:47;16.90;1.00
51595;DHT22;37677;53.254;6.594;2023-05-07T13:17:13;18.00;1.00
51595;DHT22;37677;53.254;6.594;2023-05-07T13:19:39;16.80;1.00
51595;DHT22;37677;53.254;6.594;2023-05-07T13:22:04;16.70;1.00
51595;DHT22;37677;53.254;6.594;2023-05-07T13:24:30;16.70;1.00
51595;DHT22;37677;53.254;6.594;2023-05-07T13:26:56;16.90;1.00
51595;DHT22;37677;53.254;6.594;2023-05-07T13:29:22;16.90;1.00
51595;DHT22;37677;53.254;6.594;2023-05-07T13:31:54;17.10;1.00
51595;DHT22;37677;53.254;6.594;2023-05-07T13:34:20;17.50;1.00
51595;DHT22;37677;53.254;6.594;2023-05-07T13:36:46;17.40;1.00
51595;DHT22;37677;53.254;6.594;2023-05-07T13:39:11;17.40;1.00
51595;DHT22;37677;53.254;6.594;2023-05-07T13:41:37;17.30;1.00
51595;DHT22;37677;53.254;6.594;2023-05-07T13:44:03;17.40;1.00
51595;DHT22;37677;53.254;6.594;2023-05-07T13:46:28;17.30;1.00
51595;DHT22;37677;53.254;6.594;2023-05-07T13:48:55;17.40;1.00
51595;DHT22;37677;53.254;6.594;2023-05-07T13:51:30;17.60;1.00
51595;DHT22;37677;53.254;6.594;2023-05-07T13:53:58;16.40;1.00
51595;DHT22;37677;53.254;6.594;2023-05-07T13:56:36;17.60;1.00
51595;DHT22;37677;53.254;6.594;2023-05-07T13:59:09;17.40;99.90
51595;DHT22;37677;53.254;6.594;2023-05-07T14:01:38;17.70;1.00
51595;DHT22;37677;53.254;6.594;2023-05-07T14:04:04;17.80;1.00
51595;DHT22;37677;53.254;6.594;2023-05-07T14:06:31;17.90;99.90
51595;DHT22;37677;53.254;6.594;2023-05-07T14:08:57;17.80;99.90
51595;DHT22;37677;53.254;6.594;2023-05-07T14:11:23;17.90;99.90
51595;DHT22;37677;53.254;6.594;2023-05-07T14:13:49;17.80;99.90
51595;DHT22;37677;53.254;6.594;2023-05-07T14:16:15;17.80;99.90
51595;DHT22;37677;53.254;6.594;2023-05-07T14:18:41;17.60;99.90
51595;DHT22;37677;53.254;6.594;2023-05-07T14:21:06;17.60;99.90
51595;DHT22;37677;53.254;6.594;2023-05-07T14:23:32;16.50;99.90
51595;DHT22;37677;53.254;6.594;2023-05-07T14:25:58;17.60;99.90
51595;DHT22;37677;53.254;6.594;2023-05-07T14:28:24;17.60;99.90
51595;DHT22;37677;53.254;6.594;2023-05-07T14:30:50;17.60;99.90
51595;DHT22;37677;53.254;6.594;2023-05-07T14:33:15;17.60;99.90
51595;DHT22;37677;53.254;6.594;2023-05-07T14:35:41;17.70;99.90
51595;DHT22;37677;53.254;6.594;2023-05-07T14:38:06;17.70;99.90
51595;DHT22;37677;53.254;6.594;2023-05-07T14:40:32;17.80;99.90
51595;DHT22;37677;53.254;6.594;2023-05-07T14:42:58;17.80;99.90
51595;DHT22;37677;53.254;6.594;2023-05-07T14:45:23;17.70;99.90
51595;DHT22;37677;53.254;6.594;2023-05-07T14:47:49;16.80;99.90
51595;DHT22;37677;53.254;6.594;2023-05-07T14:50:15;18.00;99.90
51595;DHT22;37677;53.254;6.594;2023-05-07T14:52:40;17.90;99.90
51595;DHT22;37677;53.254;6.594;2023-05-07T14:55:06;17.90;99.90
51595;DHT22;37677;53.254;6.594;2023-05-07T14:57:32;18.00;99.90
51595;DHT22;37677;53.254;6.594;2023-05-07T15:00:01;18.00;99.90
51595;DHT22;37677;53.254;6.594;2023-05-07T15:02:27;17.90;99.90
51595;DHT22;37677;53.254;6.594;2023-05-07T15:04:52;17.90;99.90
51595;DHT22;37677;53.254;6.594;2023-05-07T15:07:18;17.90;99.90
51595;DHT22;37677;53.254;6.594;2023-05-07T15:09:44;17.90;99.90
51595;DHT22;37677;53.254;6.594;2023-05-07T15:12:10;17.90;99.90
51595;DHT22;37677;53.254;6.594;2023-05-07T15:14:37;17.90;99.90
51595;DHT22;37677;53.254;6.594;2023-05-07T15:17:03;18.00;99.90
51595;DHT22;37677;53.254;6.594;2023-05-07T15:19:29;18.00;99.90
51595;DHT22;37677;53.254;6.594;2023-05-07T15:21:56;18.10;99.90
51595;DHT22;37677;53.254;6.594;2023-05-07T15:24:23;18.20;99.90
51595;DHT22;37677;53.254;6.594;2023-05-07T15:26:49;18.00;99.90
51595;DHT22;37677;53.254;6.594;2023-05-07T15:29:15;18.20;99.90
51595;DHT22;37677;53.254;6.594;2023-05-07T15:31:40;18.10;99.90
51595;DHT22;37677;53.254;6.594;2023-05-07T15:34:06;18.00;99.90
51595;DHT22;37677;53.254;6.594;2023-05-07T15:36:32;18.00;99.90
51595;DHT22;37677;53.254;6.594;2023-05-07T15:38:58;18.10;99.90
51595;DHT22;37677;53.254;6.594;2023-05-07T15:41:24;18.10;99.90
51595;DHT22;37677;53.254;6.594;2023-05-07T15:43:51;18.30;99.90
51595;DHT22;37677;53.254;6.594;2023-05-07T15:46:22;18.10;99.90
51595;DHT22;37677;53.254;6.594;2023-05-07T15:48:54;18.30;99.90
51595;DHT22;37677;53.254;6.594;2023-05-07T15:51:19;18.20;99.90
51595;DHT22;37677;53.254;6.594;2023-05-07T15:53:46;18.20;99.90
51595;DHT22;37677;53.254;6.594;2023-05-07T15:56:13;17.70;99.90
51595;DHT22;37677;53.254;6.594;2023-05-07T15:58:38;18.40;99.90
51595;DHT22;37677;53.254;6.594;2023-05-07T16:01:04;18.20;99.90
51595;DHT22;37677;53.254;6.594;2023-05-07T16:03:30;18.20;99.90
51595;DHT22;37677;53.254;6.594;2023-05-07T16:05:56;18.30;99.90
51595;DHT22;37677;53.254;6.594;2023-05-07T16:08:22;18.40;99.90
51595;DHT22;37677;53.254;6.594;2023-05-07T16:10:48;18.60;99.90
51595;DHT22;37677;53.254;6.594;2023-05-07T16:13:14;18.60;22.60
51595;DHT22;37677;53.254;6.594;2023-05-07T16:15:44;18.60;1.00
51595;DHT22;37677;53.254;6.594;2023-05-07T16:18:10;18.60;19.80
51595;DHT22;37677;53.254;6.594;2023-05-07T16:20:36;18.60;99.90
51595;DHT22;37677;53.254;6.594;2023-05-07T16:23:02;18.60;99.90
51595;DHT22;37677;53.254;6.594;2023-05-07T16:25:28;18.50;99.90
51595;DHT22;37677;53.254;6.594;2023-05-07T16:27:54;18.50;99.90
51595;DHT22;37677;53.254;6.594;2023-05-07T16:30:21;18.70;74.00
51595;DHT22;37677;53.254;6.594;2023-05-07T16:32:46;18.70;99.90
51595;DHT22;37677;53.254;6.594;2023-05-07T16:35:12;18.70;99.90
51595;DHT22;37677;53.254;6.594;2023-05-07T16:37:41;18.50;14.10
51595;DHT22;37677;53.254;6.594;2023-05-07T16:40:07;18.50;1.00
51595;DHT22;37677;53.254;6.594;2023-05-07T16:42:36;18.60;1.00
51595;DHT22;37677;53.254;6.594;2023-05-07T16:45:02;18.50;8.10
51595;DHT22;37677;53.254;6.594;2023-05-07T16:47:31;18.60;2.50
51595;DHT22;37677;53.254;6.594;2023-05-07T16:49:57;18.40;99.90
51595;DHT22;37677;53.254;6.594;2023-05-07T16:52:25;18.20;99.90
51595;DHT22;37677;53.254;6.594;2023-05-07T16:54:51;18.30;99.90
51595;DHT22;37677;53.254;6.594;2023-05-07T16:57:19;18.20;99.90
51595;DHT22;37677;53.254;6.594;2023-05-07T16:59:45;18.30;99.90
51595;DHT22;37677;53.254;6.594;2023-05-07T17:02:10;18.10;99.90
51595;DHT22;37677;53.254;6.594;2023-05-07T17:04:36;18.20;99.90
51595;DHT22;37677;53.254;6.594;2023-05-07T17:07:02;18.00;99.90
51595;DHT22;37677;53.254;6.594;2023-05-07T17:09:27;18.20;99.90
51595;DHT22;37677;53.254;6.594;2023-05-07T17:11:53;18.00;99.90